createdAt,value
2024-04-30T00:01:25.536Z,101680.97
2024-04-30T00:04:33.120Z,101675.03
2024-04-30T00:07:38.231Z,101679.19
2024-04-30T00:10:43.085Z,101677.25
2024-04-30T00:13:48.023Z,101673.56
2024-04-30T00:16:53.152Z,101673.56
2024-04-30T00:20:00.994Z,101673.56
2024-04-30T00:23:03.736Z,101665.09
2024-04-30T00:26:13.186Z,101661.19
2024-04-30T00:29:15.737Z,101661.94
2024-04-30T00:32:20.701Z,101656.78
2024-04-30T00:35:28.304Z,101653.34
2024-04-30T00:38:30.672Z,101644.44
2024-04-30T00:41:35.699Z,101652.81
2024-04-30T00:44:38.092Z,101644.66
2024-04-30T00:47:43.181Z,101640.25
2024-04-30T00:50:50.029Z,101630.41
2024-04-30T00:53:55.420Z,101631.25
2024-04-30T00:56:58.888Z,101629.78
2024-04-30T01:00:03.734Z,101624.56
2024-04-30T01:03:11.476Z,101623.59
2024-04-30T01:06:18.888Z,101626.66
2024-04-30T01:09:21.166Z,101619.00
2024-04-30T01:12:27.636Z,101618.88
2024-04-30T01:15:30.159Z,101612.81
2024-04-30T01:18:35.712Z,101611.97
2024-04-30T01:21:40.600Z,101603.19
2024-04-30T01:24:48.043Z,101600.56
2024-04-30T01:27:50.391Z,101602.66
2024-04-30T01:30:55.168Z,101593.44
2024-04-30T01:33:57.774Z,101588.19
2024-04-30T01:37:02.655Z,101589.25
2024-04-30T01:40:09.482Z,101589.25
2024-04-30T01:43:14.396Z,101589.69
2024-04-30T01:46:16.708Z,101576.78
2024-04-30T01:49:21.985Z,101579.41
2024-04-30T01:52:32.212Z,101569.88
2024-04-30T01:55:37.137Z,101567.47
2024-04-30T01:58:42.179Z,101573.84
2024-04-30T02:01:44.576Z,101572.81
2024-04-30T02:04:53.375Z,101569.31
2024-04-30T02:07:58.861Z,101575.69
2024-04-30T02:11:07.183Z,101562.91
2024-04-30T02:14:12.492Z,101553.28
2024-04-30T02:17:14.786Z,101554.22
2024-04-30T02:20:19.785Z,101548.47
2024-04-30T02:23:21.974Z,101539.59
2024-04-30T02:26:29.382Z,101532.78
2024-04-30T02:29:31.624Z,101534.88
2024-04-30T02:32:53.388Z,101526.00
2024-04-30T02:35:58.244Z,101519.94
2024-04-30T02:39:04.157Z,101530.03
2024-04-30T02:42:11.743Z,101518.66
2024-04-30T02:45:16.675Z,101504.72
2024-04-30T02:48:18.927Z,101492.59
2024-04-30T02:51:24.058Z,101469.19
2024-04-30T02:54:26.316Z,101469.19
2024-04-30T02:57:33.739Z,101473.06
2024-04-30T03:00:41.325Z,101435.81
2024-04-30T03:03:46.618Z,101421.28
2024-04-30T03:06:55.169Z,101370.47
2024-04-30T03:09:57.407Z,101375.69
2024-04-30T03:13:04.896Z,101380.09
2024-04-30T03:16:07.169Z,101393.47
2024-04-30T03:19:12.203Z,101394.41
2024-04-30T03:22:19.577Z,101397.25
2024-04-30T03:25:21.875Z,101393.06
2024-04-30T03:28:31.772Z,101401.00
2024-04-30T03:31:37.081Z,101414.25
2024-04-30T03:34:39.473Z,101412.72
2024-04-30T03:37:44.296Z,101419.72
2024-04-30T03:40:49.168Z,101424.09
2024-04-30T03:43:56.902Z,101435.69
2024-04-30T03:47:01.857Z,101443.66
2024-04-30T03:50:07.871Z,101453.88
2024-04-30T03:53:13.462Z,101460.03
2024-04-30T03:56:18.519Z,101477.06
2024-04-30T03:59:26.252Z,101483.75
2024-04-30T04:02:28.691Z,101487.97
2024-04-30T04:05:33.904Z,101494.03
2024-04-30T04:08:38.746Z,101500.91
2024-04-30T04:12:00.044Z,101506.78
2024-04-30T04:15:08.762Z,101515.56
2024-04-30T04:18:16.498Z,101512.84
2024-04-30T04:21:23.918Z,101522.34
2024-04-30T04:24:29.359Z,101529.78
2024-04-30T04:27:34.335Z,101541.91
2024-04-30T04:30:39.165Z,101537.97
2024-04-30T04:33:44.184Z,101538.72
2024-04-30T04:36:49.037Z,101546.16
2024-04-30T04:39:51.441Z,101544.91
2024-04-30T04:42:56.437Z,101550.78
2024-04-30T04:46:01.447Z,101558.72
2024-04-30T04:49:08.188Z,101556.53
2024-04-30T04:52:10.752Z,101560.53
2024-04-30T04:55:15.733Z,101554.88
2024-04-30T04:58:20.585Z,101558.34
2024-04-30T05:01:28.160Z,101557.00
2024-04-30T05:04:30.508Z,101559.13
2024-04-30T05:07:37.377Z,101557.34
2024-04-30T05:10:39.815Z,101560.66
2024-04-30T05:13:45.296Z,101566.53
2024-04-30T05:16:52.978Z,101571.16
2024-04-30T05:19:57.838Z,101563.00
2024-04-30T05:23:02.682Z,101564.88
2024-04-30T05:26:05.156Z,101560.88
2024-04-30T05:29:10.070Z,101564.09
2024-04-30T05:32:17.497Z,101563.78
2024-04-30T05:35:19.758Z,101563.34
2024-04-30T05:38:24.986Z,101567.84
2024-04-30T05:41:27.192Z,101567.81
2024-04-30T05:44:32.018Z,101558.38
2024-04-30T05:47:36.942Z,101556.50
2024-04-30T05:50:44.764Z,101561.56
2024-04-30T05:53:46.961Z,101556.16
2024-04-30T05:56:51.796Z,101551.19
2024-04-30T05:59:54.375Z,101551.00
2024-04-30T06:03:03.842Z,101548.69
2024-04-30T06:06:11.939Z,101546.69
2024-04-30T06:09:16.756Z,101544.94
2024-04-30T06:12:18.992Z,101544.84
2024-04-30T06:15:23.856Z,101537.44
2024-04-30T06:18:32.158Z,101535.88
2024-04-30T06:21:38.169Z,101533.28
2024-04-30T06:24:44.150Z,101535.31
2024-04-30T06:27:51.070Z,101533.03
2024-04-30T06:30:55.896Z,101533.94
2024-04-30T06:34:03.492Z,101526.69
2024-04-30T06:37:06.647Z,101527.09
2024-04-30T06:40:12.866Z,101516.75
2024-04-30T06:43:17.820Z,101528.88
2024-04-30T06:46:20.134Z,101516.50
2024-04-30T06:49:27.871Z,101512.19
2024-04-30T06:52:35.814Z,101509.91
2024-04-30T06:55:42.645Z,101503.03
2024-04-30T06:58:45.100Z,101517.47
2024-04-30T07:01:49.974Z,101506.91
2024-04-30T07:04:54.914Z,101500.44
2024-04-30T07:07:59.797Z,101500.44
2024-04-30T07:11:03.085Z,101501.13
2024-04-30T07:14:08.305Z,101504.31
2024-04-30T07:17:11.127Z,101504.94
2024-04-30T07:20:18.936Z,101511.88
2024-04-30T07:23:21.536Z,101512.53
2024-04-30T07:26:32.100Z,101507.59
2024-04-30T07:29:34.321Z,101505.41
2024-04-30T07:32:39.190Z,101504.69
2024-04-30T07:35:44.172Z,101511.09
2024-04-30T07:38:49.407Z,101506.97
2024-04-30T07:41:57.086Z,101505.44
2024-04-30T07:45:04.834Z,101492.34
2024-04-30T07:48:08.929Z,101499.41
2024-04-30T07:51:16.480Z,101492.00
2024-04-30T07:54:21.786Z,101493.44
2024-04-30T07:57:24.028Z,101495.94
2024-04-30T08:00:29.152Z,101487.44
2024-04-30T08:03:31.539Z,101490.31
2024-04-30T08:06:39.021Z,101485.41
2024-04-30T08:09:41.660Z,101483.44
2024-04-30T08:12:46.430Z,101472.44
2024-04-30T08:15:48.719Z,101472.78
2024-04-30T08:18:55.580Z,101470.06
2024-04-30T08:22:03.269Z,101463.50
2024-04-30T08:25:11.363Z,101456.84
2024-04-30T08:28:16.310Z,101463.41
2024-04-30T08:31:19.021Z,101457.25
2024-04-30T08:34:25.436Z,101452.09
2024-04-30T08:37:32.594Z,101454.41
2024-04-30T08:40:39.390Z,101452.91
2024-04-30T08:43:42.894Z,101456.53
2024-04-30T08:46:52.208Z,101449.09
2024-04-30T08:50:09.380Z,101450.78
2024-04-30T08:53:26.677Z,101440.72
2024-04-30T08:56:31.633Z,101433.44
2024-04-30T08:59:34.066Z,101423.19
2024-04-30T09:02:42.441Z,101424.69
2024-04-30T09:05:49.334Z,101407.81
2024-04-30T09:08:56.765Z,101415.94
2024-04-30T09:12:01.752Z,101421.75
2024-04-30T09:15:07.731Z,101405.78
2024-04-30T09:18:10.758Z,101396.59
2024-04-30T09:21:26.149Z,101387.97
2024-04-30T09:24:33.664Z,101376.66
2024-04-30T09:27:39.647Z,101367.94
2024-04-30T09:30:45.225Z,101365.84
2024-04-30T09:34:00.163Z,101357.75
2024-04-30T09:37:06.286Z,101354.63
2024-04-30T09:40:14.016Z,101344.44
2024-04-30T09:43:19.050Z,101343.28
2024-04-30T09:46:24.421Z,101332.97
2024-04-30T09:49:31.043Z,101329.75
2024-04-30T09:52:40.057Z,101326.09
2024-04-30T09:55:48.438Z,101324.94
2024-04-30T09:58:51.068Z,101327.47
2024-04-30T10:01:58.497Z,101312.84
2024-04-30T10:05:03.355Z,101303.78
2024-04-30T10:08:09.389Z,101284.59
2024-04-30T10:11:16.884Z,101288.09
2024-04-30T10:14:31.882Z,101289.00
2024-04-30T10:17:41.335Z,101283.72
2024-04-30T10:20:46.300Z,101267.03
2024-04-30T10:23:51.616Z,101264.44
2024-04-30T10:26:56.414Z,101263.16
2024-04-30T10:30:02.817Z,101260.75
2024-04-30T10:33:08.653Z,101253.97
2024-04-30T10:36:16.121Z,101241.00
2024-04-30T10:39:26.443Z,101247.16
2024-04-30T10:42:39.719Z,101246.34
2024-04-30T10:45:42.018Z,101238.34
2024-04-30T10:48:51.600Z,101234.00
2024-04-30T10:51:56.560Z,101245.09
2024-04-30T10:55:01.704Z,101235.59
2024-04-30T10:58:14.458Z,101229.91
2024-04-30T11:01:26.451Z,101222.91
2024-04-30T11:04:33.554Z,101227.00
2024-04-30T11:07:36.146Z,101214.75
2024-04-30T11:10:41.056Z,101212.84
2024-04-30T11:13:49.309Z,101209.00
2024-04-30T11:16:55.792Z,101200.69
2024-04-30T11:20:01.926Z,101191.28
2024-04-30T11:23:04.933Z,101189.69
2024-04-30T11:26:10.803Z,101173.94
2024-04-30T11:29:30.718Z,101180.47
2024-04-30T11:32:42.803Z,101180.34
2024-04-30T11:35:45.098Z,101178.78
2024-04-30T11:38:50.502Z,101168.16
2024-04-30T11:42:01.948Z,101176.94
2024-04-30T11:45:25.855Z,101178.34
2024-04-30T11:48:34.045Z,101164.16
2024-04-30T11:51:39.801Z,101159.75
2024-04-30T11:54:42.030Z,101157.56
2024-04-30T11:57:46.823Z,101152.88
2024-04-30T12:00:54.192Z,101146.41
2024-04-30T12:04:01.320Z,101154.38
2024-04-30T12:07:04.285Z,101142.91
2024-04-30T12:10:11.066Z,101134.38
2024-04-30T12:13:15.919Z,101138.19
2024-04-30T12:16:20.900Z,101121.06
2024-04-30T12:19:25.863Z,101119.91
2024-04-30T12:22:31.047Z,101113.19
2024-04-30T12:25:35.880Z,101114.13
2024-04-30T12:28:42.536Z,101113.03
2024-04-30T12:31:50.043Z,101107.91
2024-04-30T12:34:52.322Z,101106.72
2024-04-30T12:37:57.242Z,101106.31
2024-04-30T12:40:59.476Z,101103.25
2024-04-30T12:44:04.342Z,101108.72
2024-04-30T12:47:12.083Z,101094.31
2024-04-30T12:50:17.563Z,101096.69
2024-04-30T12:53:22.357Z,101086.41
2024-04-30T12:56:27.189Z,101081.06
2024-04-30T12:59:32.282Z,101081.56
2024-04-30T13:02:39.820Z,101074.97
2024-04-30T13:05:42.231Z,101072.13
2024-04-30T13:08:47.803Z,101077.75
2024-04-30T13:11:50.084Z,101074.47
2024-04-30T13:14:54.967Z,101072.97
2024-04-30T13:18:03.277Z,101063.69
2024-04-30T13:21:09.959Z,101059.28
2024-04-30T13:24:15.172Z,101060.94
2024-04-30T13:27:20.257Z,101053.06
2024-04-30T13:30:25.052Z,101047.38
2024-04-30T13:33:35.162Z,101053.19
2024-04-30T13:36:37.509Z,101047.03
2024-04-30T13:39:42.498Z,101028.88
2024-04-30T13:42:47.257Z,101027.72
2024-04-30T13:45:53.313Z,101031.25
2024-04-30T13:49:04.570Z,101030.13
2024-04-30T13:52:09.807Z,101037.25
2024-04-30T13:55:12.327Z,101030.34
2024-04-30T13:58:17.348Z,101022.53
2024-04-30T14:01:19.730Z,101031.31
2024-04-30T14:04:27.462Z,101023.69
2024-04-30T14:07:32.451Z,101017.84
2024-04-30T14:10:37.807Z,101013.97
2024-04-30T14:13:42.838Z,101006.41
2024-04-30T14:16:48.232Z,100998.03
2024-04-30T14:19:53.460Z,101006.75
2024-04-30T14:22:58.506Z,100992.91
2024-04-30T14:26:07.561Z,100990.28
2024-04-30T14:29:13.255Z,100995.47
2024-04-30T14:32:18.305Z,100990.47
2024-04-30T14:35:25.497Z,100978.16
2024-04-30T14:38:30.362Z,100972.19
2024-04-30T14:41:35.780Z,100971.72
2024-04-30T14:44:38.067Z,100969.06
2024-04-30T14:47:45.650Z,100972.22
2024-04-30T14:50:52.082Z,100973.25
2024-04-30T14:53:56.918Z,100972.53
2024-04-30T14:56:59.535Z,100971.31
2024-04-30T15:00:04.360Z,100976.28
2024-04-30T15:03:06.968Z,100974.03
2024-04-30T15:06:20.219Z,100973.59
2024-04-30T15:09:22.692Z,100968.53
2024-04-30T15:12:28.696Z,100967.69
2024-04-30T15:15:30.960Z,100964.72
2024-04-30T15:18:36.164Z,100962.06
2024-04-30T15:21:44.562Z,100953.38
2024-04-30T15:24:49.577Z,100956.44
2024-04-30T15:27:54.378Z,100949.28
2024-04-30T15:30:59.633Z,100949.41
2024-04-30T15:34:01.947Z,100946.34
2024-04-30T15:37:09.453Z,100949.16
2024-04-30T15:40:14.691Z,100945.38
2024-04-30T15:43:18.692Z,100931.38
2024-04-30T15:46:24.049Z,100942.53
2024-04-30T15:49:29.052Z,100935.38
2024-04-30T15:52:33.995Z,100932.19
2024-04-30T15:55:39.322Z,100924.28
2024-04-30T15:58:42.066Z,100925.44
2024-04-30T16:01:47.212Z,100928.50
2024-04-30T16:04:49.892Z,100918.34
2024-04-30T16:07:57.444Z,100921.03
2024-04-30T16:11:09.221Z,100914.94
2024-04-30T16:14:16.856Z,100915.44
2024-04-30T16:17:21.200Z,100905.16
2024-04-30T16:20:26.243Z,100912.31
2024-04-30T16:23:31.015Z,100915.13
2024-04-30T16:26:35.804Z,100910.94
2024-04-30T16:29:38.050Z,100903.84
2024-04-30T16:32:42.903Z,100909.25
2024-04-30T16:35:45.548Z,100908.06
2024-04-30T16:38:52.889Z,100900.50
2024-04-30T16:41:55.133Z,100895.38
2024-04-30T16:45:00.450Z,100898.94
2024-04-30T16:48:10.114Z,100902.81
2024-04-30T16:51:16.400Z,100898.34
2024-04-30T16:54:24.664Z,100903.28
2024-04-30T16:57:29.577Z,100899.63
2024-04-30T17:00:31.961Z,100896.34
2024-04-30T17:03:36.964Z,100896.41
2024-04-30T17:06:48.128Z,100900.41
2024-04-30T17:09:56.459Z,100893.63
2024-04-30T17:13:01.443Z,100894.25
2024-04-30T17:16:04.753Z,100891.00
2024-04-30T17:19:10.384Z,100893.91
2024-04-30T17:22:12.652Z,100887.59
2024-04-30T17:25:20.513Z,100885.78
2024-04-30T17:28:23.567Z,100889.34
2024-04-30T17:31:28.593Z,100880.75
2024-04-30T17:34:30.814Z,100890.41
2024-04-30T17:37:38.058Z,100880.97
2024-04-30T17:40:45.476Z,100889.41
2024-04-30T17:43:47.759Z,100888.03
2024-04-30T17:46:52.589Z,100891.50
2024-04-30T17:49:55.191Z,100894.81
2024-04-30T17:53:00.115Z,100887.25
2024-04-30T17:56:08.178Z,100895.63
2024-04-30T17:59:13.731Z,100890.91
2024-04-30T18:02:18.670Z,100891.50
2024-04-30T18:05:20.980Z,100884.50
2024-04-30T18:08:25.753Z,100885.91
2024-04-30T18:11:33.411Z,100886.66
2024-04-30T18:14:40.471Z,100887.78
2024-04-30T18:17:45.260Z,100887.03
2024-04-30T18:20:47.525Z,100881.50
2024-04-30T18:23:52.625Z,100892.41
2024-04-30T18:27:00.026Z,100890.78
2024-04-30T18:30:02.320Z,100894.72
2024-04-30T18:33:07.631Z,100894.56
2024-04-30T18:36:10.145Z,100891.34
2024-04-30T18:39:16.202Z,100895.91
2024-04-30T18:42:22.068Z,100897.13
2024-04-30T18:45:26.978Z,100894.78
2024-04-30T18:48:32.072Z,100894.75
2024-04-30T18:51:42.137Z,100895.22
2024-04-30T18:54:44.507Z,100899.16
2024-04-30T18:57:52.032Z,100902.47
2024-04-30T19:00:54.365Z,100896.06
2024-04-30T19:09:06.794Z,100908.31
2024-04-30T19:12:11.689Z,100904.53
2024-04-30T19:15:16.629Z,100909.00
2024-04-30T19:18:21.577Z,100902.84
2024-04-30T19:21:27.045Z,100906.59
2024-04-30T19:24:31.914Z,100903.38
2024-04-30T19:27:34.310Z,100906.47
2024-04-30T19:30:41.833Z,100906.75
2024-04-30T19:33:44.182Z,100904.63
2024-04-30T19:36:49.157Z,100903.16
2024-04-30T19:39:54.143Z,100905.78
2024-04-30T19:42:59.595Z,100903.88
2024-04-30T19:46:07.690Z,100900.91
2024-04-30T19:49:10.143Z,100902.47
2024-04-30T19:52:15.004Z,100902.09
2024-04-30T19:55:17.465Z,100898.84
2024-04-30T19:58:23.878Z,100899.50
2024-04-30T20:01:31.282Z,100899.00
2024-04-30T20:04:39.594Z,100899.06
2024-04-30T20:07:42.646Z,100895.22
2024-04-30T20:10:47.459Z,100892.13
2024-04-30T20:13:53.565Z,100895.16
2024-04-30T20:16:58.507Z,100898.00
2024-04-30T20:20:03.510Z,100901.34
2024-04-30T20:23:08.412Z,100902.88
2024-04-30T20:26:30.679Z,100904.16
2024-04-30T20:29:33.129Z,100906.88
2024-04-30T20:32:41.038Z,100913.56
2024-04-30T20:35:53.800Z,100911.50
2024-04-30T20:39:01.382Z,100909.78
2024-04-30T20:42:14.233Z,100915.13
2024-04-30T20:45:21.656Z,100923.28
2024-04-30T20:48:29.308Z,100922.63
2024-04-30T20:51:34.227Z,100926.09
2024-04-30T20:54:39.135Z,100930.13
2024-04-30T20:57:44.002Z,100936.22
2024-04-30T21:00:52.299Z,100939.38
2024-04-30T21:04:00.041Z,100935.75
2024-04-30T21:07:02.463Z,100937.41
2024-04-30T21:10:07.972Z,100937.19
2024-04-30T21:13:15.621Z,100935.72
2024-04-30T21:16:17.821Z,100936.06
2024-04-30T21:19:25.445Z,100939.84
2024-04-30T21:22:32.521Z,100941.50
2024-04-30T21:25:37.638Z,100939.03
2024-04-30T21:28:42.536Z,100935.69
2024-04-30T21:31:47.338Z,100931.34
2024-04-30T21:34:52.213Z,100930.00
2024-04-30T21:37:57.137Z,100936.03
2024-04-30T21:41:01.986Z,100939.16
2024-04-30T21:44:07.090Z,100933.56
2024-04-30T21:47:11.972Z,100929.88
2024-04-30T21:50:19.439Z,100928.34
2024-04-30T21:53:21.699Z,100933.78
2024-04-30T21:56:29.690Z,100927.97
2024-04-30T21:59:34.835Z,100936.25
2024-04-30T22:02:37.226Z,100942.78
2024-04-30T22:05:44.732Z,100939.59
2024-04-30T22:08:48.648Z,100935.34
2024-04-30T22:11:57.167Z,100931.53
2024-04-30T22:14:59.740Z,100932.34
2024-04-30T22:18:04.725Z,100928.50
2024-04-30T22:21:15.324Z,100930.41
2024-04-30T22:24:22.083Z,100928.13
2024-04-30T22:27:24.769Z,100925.50
2024-04-30T22:30:29.685Z,100936.72
2024-04-30T22:33:32.107Z,100925.84
2024-04-30T22:36:40.179Z,100931.78
2024-04-30T22:39:42.498Z,100930.59
2024-04-30T22:42:47.397Z,100935.06
2024-04-30T22:45:53.077Z,100933.59
2024-04-30T22:48:55.914Z,100934.97
2024-04-30T22:52:03.423Z,100923.59
2024-04-30T22:55:06.670Z,100933.13
2024-04-30T22:58:11.567Z,100930.34
2024-04-30T23:01:17.100Z,100930.00
2024-04-30T23:04:22.152Z,100928.69
2024-04-30T23:07:27.031Z,100929.81
2024-04-30T23:10:31.800Z,100928.31
2024-04-30T23:13:34.130Z,100922.59
2024-04-30T23:16:39.099Z,100920.75
2024-04-30T23:19:41.407Z,100918.19
2024-04-30T23:22:48.766Z,100921.97
2024-04-30T23:25:55.779Z,100919.34
2024-04-30T23:29:00.966Z,100914.88
2024-04-30T23:32:06.350Z,100915.28
2024-04-30T23:35:11.219Z,100915.75
2024-04-30T23:38:15.982Z,100907.88
2024-04-30T23:41:20.870Z,100915.13
2024-04-30T23:44:25.720Z,100905.50
2024-04-30T23:47:30.605Z,100917.34
2024-04-30T23:50:35.469Z,100909.25
2024-04-30T23:53:40.657Z,100897.88
2024-04-30T23:56:45.576Z,100899.66
2024-04-30T23:59:47.813Z,100906.25
